Time;durP1;ratioP1;P1;durP2;ratioP2;P2;SDS_P1;SDS_P2;PMS_P1;PMS_P2;Temp;Humidity;BMP_temperature;BMP_pressure;BME280_temperature;BME280_humidity;BME280_pressure;Samples;Min_cycle;Max_cycle;Signal;HPM_P1;HPM_P2
2024/01/15 00:00:48;;;;;;;36.17;15.63;;;-0.20;99.90;;;;;;5013595;28;20880;-67
2024/01/15 00:03:13;;;;;;;35.63;14.87;;;-0.20;99.90;;;;;;5008819;28;20235;-67
2024/01/15 00:05:39;;;;;;;38.87;16.27;;;-0.20;99.90;;;;;;5018625;28;20504;-67
2024/01/15 00:08:05;;;;;;;46.07;15.70;;;-0.20;99.90;;;;;;5021502;28;20281;-67
2024/01/15 00:10:30;;;;;;;38.40;17.07;;;-0.20;99.90;;;;;;5013493;28;20182;-67
2024/01/15 00:12:56;;;;;;;35.10;19.10;;;-0.20;99.90;;;;;;5017168;28;20179;-67
2024/01/15 00:15:22;;;;;;;32.77;14.20;;;-0.20;99.90;;;;;;5014901;28;20215;-68
2024/01/15 00:17:47;;;;;;;47.37;18.50;;;-0.10;99.90;;;;;;5033013;28;20744;-68
2024/01/15 00:20:13;;;;;;;41.33;16.97;;;-0.10;99.90;;;;;;5018116;28;20422;-67
2024/01/15 00:22:39;;;;;;;45.60;18.13;;;-0.10;99.90;;;;;;5021069;28;20184;-67
2024/01/15 00:25:05;;;;;;;49.00;19.70;;;0.00;99.90;;;;;;5012239;28;20215;-67
2024/01/15 00:27:30;;;;;;;30.43;14.47;;;0.00;99.90;;;;;;5021330;28;20454;-67
2024/01/15 00:29:56;;;;;;;42.40;18.63;;;-0.10;99.90;;;;;;5017690;28;20422;-67
2024/01/15 00:32:21;;;;;;;47.73;20.03;;;0.00;99.90;;;;;;5018318;28;20170;-67
2024/01/15 00:34:47;;;;;;;40.50;17.77;;;0.00;99.90;;;;;;5013102;28;20284;-67
2024/01/15 00:37:13;;;;;;;47.33;19.50;;;0.00;99.90;;;;;;5020378;28;20199;-67
2024/01/15 00:39:38;;;;;;;40.60;18.30;;;0.00;99.90;;;;;;5019430;28;20180;-68
2024/01/15 00:42:04;;;;;;;43.73;20.60;;;0.10;99.90;;;;;;5014724;28;20337;-66
2024/01/15 00:44:30;;;;;;;39.00;16.53;;;0.10;99.90;;;;;;5014943;28;20203;-66
2024/01/15 00:46:55;;;;;;;39.20;16.60;;;0.10;99.90;;;;;;5022013;28;20203;-68
2024/01/15 00:49:21;;;;;;;50.47;21.00;;;0.10;99.90;;;;;;5015084;28;20976;-66
2024/01/15 00:51:47;;;;;;;39.93;19.23;;;0.00;99.90;;;;;;5022196;28;20177;-66
2024/01/15 00:54:12;;;;;;;43.23;18.50;;;0.00;99.90;;;;;;5018350;28;20286;-66
2024/01/15 00:56:38;;;;;;;50.33;20.10;;;0.10;99.90;;;;;;5019736;28;20877;-66
2024/01/15 00:59:04;;;;;;;41.00;19.67;;;0.00;99.90;;;;;;5018627;28;20828;-66
2024/01/15 01:01:29;;;;;;;52.43;20.40;;;0.00;99.90;;;;;;5012467;28;20203;-66
2024/01/15 01:03:55;;;;;;;45.43;20.80;;;0.00;99.90;;;;;;5011490;28;20548;-67
2024/01/15 01:06:21;;;;;;;36.63;16.80;;;0.00;99.90;;;;;;5023289;28;20828;-66
2024/01/15 01:08:46;;;;;;;42.17;18.17;;;0.10;99.90;;;;;;5019705;28;20210;-67
2024/01/15 01:11:18;;;;;;;41.50;19.87;;;0.00;99.90;;;;;;5021313;28;20188;-66
2024/01/15 01:13:43;;;;;;;49.37;20.67;;;0.10;99.90;;;;;;5022055;28;20208;-66
2024/01/15 01:16:09;;;;;;;46.27;20.50;;;0.10;99.90;;;;;;5011760;28;20438;-66
2024/01/15 01:18:35;;;;;;;46.33;20.20;;;0.00;99.90;;;;;;5019790;28;20217;-66
2024/01/15 01:21:00;;;;;;;34.13;15.77;;;0.00;99.90;;;;;;5013736;28;20269;-66
2024/01/15 01:23:26;;;;;;;41.37;18.83;;;-0.10;99.90;;;;;;5019563;28;20212;-67
2024/01/15 01:25:51;;;;;;;43.23;16.73;;;-0.10;99.90;;;;;;5023460;28;20298;-66
2024/01/15 01:28:17;;;;;;;42.00;20.07;;;-0.10;99.90;;;;;;5012805;28;20194;-67
2024/01/15 01:30:43;;;;;;;45.27;19.90;;;0.00;99.90;;;;;;5018864;28;20180;-67
2024/01/15 01:33:08;;;;;;;44.03;18.27;;;-0.10;99.90;;;;;;5016165;28;20208;-68
2024/01/15 01:35:34;;;;;;;36.33;16.87;;;-0.20;99.90;;;;;;5021920;28;20669;-67
2024/01/15 01:37:59;;;;;;;42.60;16.97;;;-0.10;99.90;;;;;;5021235;28;20600;-67
2024/01/15 01:40:25;;;;;;;33.73;16.63;;;0.00;99.90;;;;;;5022516;28;20193;-68
2024/01/15 01:42:50;;;;;;;52.67;20.10;;;0.00;99.90;;;;;;5023546;28;20191;-68
2024/01/15 01:45:16;;;;;;;46.90;18.23;;;0.10;99.90;;;;;;5023135;28;20293;-68
2024/01/15 01:47:41;;;;;;;40.40;16.20;;;0.00;99.90;;;;;;5025248;28;20561;-68
2024/01/15 01:50:07;;;;;;;49.73;20.20;;;-0.10;99.90;;;;;;5020627;28;20817;-68
2024/01/15 01:52:34;;;;;;;42.23;18.90;;;-0.10;99.90;;;;;;5023087;28;20199;-68
2024/01/15 01:55:02;;;;;;;49.60;19.43;;;-0.10;99.90;;;;;;5019854;28;20450;-68
2024/01/15 01:57:28;;;;;;;45.73;18.87;;;0.00;99.90;;;;;;5014475;28;20549;-68
2024/01/15 01:59:54;;;;;;;40.43;19.37;;;-0.10;99.90;;;;;;5016638;28;20430;-68
2024/01/15 02:02:21;;;;;;;47.40;19.37;;;-0.20;99.90;;;;;;5018068;28;20431;-67
2024/01/15 02:04:47;;;;;;;45.60;19.83;;;-0.20;99.90;;;;;;5024029;28;20209;-67
2024/01/15 02:07:13;;;;;;;41.13;18.50;;;-0.10;99.90;;;;;;5015817;28;20458;-68
2024/01/15 02:09:39;;;;;;;52.03;20.70;;;-0.10;99.90;;;;;;5020578;28;20425;-67
2024/01/15 02:12:06;;;;;;;44.20;18.17;;;-0.20;99.90;;;;;;5017409;28;20518;-68
2024/01/15 02:14:31;;;;;;;40.93;16.43;;;-0.10;99.90;;;;;;5013044;28;20211;-67
2024/01/15 02:16:57;;;;;;;47.57;20.37;;;-0.10;99.90;;;;;;5016928;28;20426;-68
2024/01/15 02:19:23;;;;;;;39.97;17.60;;;-0.10;99.90;;;;;;5014127;28;20623;-68
2024/01/15 02:21:48;;;;;;;47.17;18.60;;;-0.10;99.90;;;;;;5016878;28;20687;-67
2024/01/15 02:24:14;;;;;;;36.30;16.83;;;-0.10;99.90;;;;;;5012821;28;20321;-67
2024/01/15 02:26:39;;;;;;;52.30;19.13;;;-0.10;99.90;;;;;;5015968;28;20236;-68
2024/01/15 02:29:10;;;;;;;42.00;18.23;;;0.00;99.90;;;;;;5017523;28;20187;-68
2024/01/15 02:31:39;;;;;;;44.50;19.60;;;0.00;99.90;;;;;;5017460;28;20225;-68
2024/01/15 02:34:05;;;;;;;42.33;18.20;;;0.00;99.90;;;;;;5017211;28;20536;-68
2024/01/15 02:36:30;;;;;;;38.17;18.57;;;0.00;99.90;;;;;;5022496;28;20482;-68
2024/01/15 02:38:56;;;;;;;43.30;17.60;;;0.00;99.90;;;;;;5017702;28;20952;-68
2024/01/15 02:41:21;;;;;;;41.60;16.57;;;0.00;99.90;;;;;;5026321;28;20198;-68
2024/01/15 02:43:47;;;;;;;39.00;16.30;;;0.10;99.90;;;;;;5022495;28;20241;-67
2024/01/15 02:46:12;;;;;;;35.90;15.80;;;0.00;99.90;;;;;;5017218;28;20199;-67
2024/01/15 02:48:38;;;;;;;36.90;17.70;;;0.10;99.90;;;;;;5023389;28;20216;-67
2024/01/15 02:51:04;;;;;;;29.47;14.27;;;0.20;99.90;;;;;;5015633;28;20328;-67
2024/01/15 02:53:29;;;;;;;40.73;18.17;;;0.00;99.90;;;;;;5024474;28;20196;-67
2024/01/15 02:55:55;;;;;;;42.93;17.37;;;0.00;99.90;;;;;;5018806;28;20194;-67
2024/01/15 02:58:21;;;;;;;28.13;12.80;;;0.00;99.90;;;;;;5024171;28;20252;-67
2024/01/15 03:00:47;;;;;;;45.03;18.37;;;0.10;99.90;;;;;;5015025;28;20617;-67
2024/01/15 03:03:12;;;;;;;37.57;18.27;;;0.10;99.90;;;;;;5025444;28;20483;-67
2024/01/15 03:05:38;;;;;;;39.67;19.00;;;0.10;99.90;;;;;;5020146;28;20307;-68
2024/01/15 03:08:04;;;;;;;28.37;15.20;;;0.20;99.90;;;;;;5024392;28;20211;-67
2024/01/15 03:10:30;;;;;;;44.60;17.83;;;0.20;99.90;;;;;;5016261;28;20263;-67
2024/01/15 03:12:55;;;;;;;41.47;15.87;;;0.10;99.90;;;;;;5025881;28;20442;-68
2024/01/15 03:15:21;;;;;;;33.20;15.90;;;0.10;99.90;;;;;;5024490;28;20270;-68
2024/01/15 03:17:48;;;;;;;45.60;14.17;;;0.20;99.90;;;;;;5016957;28;20301;-68
2024/01/15 03:20:13;;;;;;;32.97;15.70;;;0.20;99.90;;;;;;5019190;28;20521;-68
2024/01/15 03:22:39;;;;;;;36.73;16.67;;;0.20;99.90;;;;;;5025844;28;20187;-68
2024/01/15 03:25:05;;;;;;;36.10;16.27;;;0.20;99.90;;;;;;5017872;28;20319;-68
2024/01/15 03:27:31;;;;;;;39.70;17.10;;;0.20;99.90;;;;;;5016248;28;20194;-68
2024/01/15 03:29:57;;;;;;;40.63;16.17;;;0.20;99.90;;;;;;5018918;28;20438;-68
2024/01/15 03:32:22;;;;;;;36.23;15.93;;;0.20;99.90;;;;;;5024267;28;20176;-68
2024/01/15 03:34:48;;;;;;;37.70;16.53;;;0.10;99.90;;;;;;5013914;28;20288;-67
2024/01/15 03:37:14;;;;;;;36.63;16.30;;;0.20;99.90;;;;;;5016885;28;20188;-67
2024/01/15 03:39:39;;;;;;;40.13;16.27;;;0.30;99.90;;;;;;5014800;28;20189;-68
2024/01/15 03:42:06;;;;;;;39.60;17.27;;;0.30;99.90;;;;;;5019209;28;20465;-68
2024/01/15 03:44:32;;;;;;;31.20;14.50;;;0.40;99.90;;;;;;5009091;28;20330;-68
2024/01/15 03:46:58;;;;;;;37.07;16.60;;;0.40;99.90;;;;;;5015730;28;20918;-68
2024/01/15 03:49:23;;;;;;;35.93;15.67;;;0.40;99.90;;;;;;5017659;28;20180;-67
2024/01/15 03:51:49;;;;;;;37.77;17.77;;;0.40;99.90;;;;;;5015470;28;20440;-67
2024/01/15 03:54:14;;;;;;;38.07;16.80;;;0.40;99.90;;;;;;5019794;28;20577;-67
2024/01/15 03:56:40;;;;;;;39.03;16.47;;;0.40;99.90;;;;;;5014965;28;20211;-68
2024/01/15 03:59:06;;;;;;;30.57;16.37;;;0.40;99.90;;;;;;5021746;28;20215;-67
2024/01/15 04:01:31;;;;;;;37.00;14.40;;;0.50;99.90;;;;;;5021978;28;20175;-67
2024/01/15 04:03:57;;;;;;;40.03;15.63;;;0.40;99.90;;;;;;5018196;28;20201;-67
2024/01/15 04:06:22;;;;;;;35.20;16.33;;;0.30;99.90;;;;;;5022427;28;20184;-67
2024/01/15 04:08:48;;;;;;;38.60;15.97;;;0.40;99.90;;;;;;5024852;28;20757;-68
2024/01/15 04:11:13;;;;;;;39.37;18.10;;;0.40;99.90;;;;;;5017741;28;20275;-68
2024/01/15 04:13:39;;;;;;;33.13;18.20;;;0.40;99.90;;;;;;5024595;28;20339;-67
2024/01/15 04:16:05;;;;;;;43.13;18.40;;;0.30;99.90;;;;;;5017608;28;20640;-68
2024/01/15 04:18:30;;;;;;;37.57;17.67;;;0.30;99.90;;;;;;5014539;28;20416;-67
2024/01/15 04:20:56;;;;;;;35.80;16.43;;;0.20;99.90;;;;;;5013154;28;20537;-67
2024/01/15 04:23:21;;;;;;;36.40;16.73;;;0.30;99.90;;;;;;5021848;28;20666;-67
2024/01/15 04:25:47;;;;;;;30.37;15.07;;;0.40;99.90;;;;;;5017209;28;20230;-68
2024/01/15 04:28:12;;;;;;;42.63;19.33;;;0.40;99.90;;;;;;5014840;28;20176;-68
2024/01/15 04:30:38;;;;;;;31.43;15.87;;;0.30;99.90;;;;;;5018220;28;20184;-68
2024/01/15 04:33:04;;;;;;;44.90;19.57;;;0.40;99.90;;;;;;5018339;28;20176;-68
2024/01/15 04:35:30;;;;;;;39.43;18.90;;;0.40;99.90;;;;;;5016705;28;20199;-68
2024/01/15 04:37:56;;;;;;;44.53;17.53;;;0.30;99.90;;;;;;5021965;28;20175;-67
2024/01/15 04:40:22;;;;;;;37.20;16.30;;;0.30;99.90;;;;;;5016369;28;20747;-68
2024/01/15 04:42:47;;;;;;;30.63;14.57;;;0.30;99.90;;;;;;5018502;28;20187;-68
2024/01/15 04:45:13;;;;;;;44.67;18.80;;;0.20;99.90;;;;;;5014415;28;20235;-67
2024/01/15 04:47:39;;;;;;;37.97;18.40;;;0.30;99.90;;;;;;5016091;28;20248;-68
2024/01/15 04:50:05;;;;;;;33.70;14.67;;;0.30;99.90;;;;;;5013764;28;20241;-68
2024/01/15 04:52:31;;;;;;;40.67;17.90;;;0.30;99.90;;;;;;5020827;28;20420;-67
2024/01/15 04:54:57;;;;;;;36.33;18.57;;;0.30;99.90;;;;;;5020273;28;20460;-68
2024/01/15 04:57:22;;;;;;;42.13;18.17;;;0.30;99.90;;;;;;5014825;28;20220;-68
2024/01/15 04:59:48;;;;;;;43.77;19.90;;;0.30;99.90;;;;;;5023205;28;20509;-67
2024/01/15 05:02:14;;;;;;;40.13;18.33;;;0.30;99.90;;;;;;5013748;28;20781;-68
2024/01/15 05:04:39;;;;;;;40.50;18.83;;;0.30;99.90;;;;;;5018089;28;20743;-66
2024/01/15 05:07:05;;;;;;;42.23;19.70;;;0.30;99.90;;;;;;5020346;28;20211;-67
2024/01/15 05:09:30;;;;;;;37.50;15.60;;;0.30;99.90;;;;;;5022692;28;20215;-67
2024/01/15 05:11:56;;;;;;;35.03;17.00;;;0.30;99.90;;;;;;5019964;28;20181;-68
2024/01/15 05:14:22;;;;;;;44.50;17.70;;;0.20;99.90;;;;;;5016162;28;20227;-67
2024/01/15 05:16:51;;;;;;;32.27;14.53;;;0.20;99.90;;;;;;5018929;28;20728;-67
2024/01/15 05:19:18;;;;;;;39.23;17.97;;;0.20;99.90;;;;;;5017355;28;20798;-67
2024/01/15 05:21:43;;;;;;;34.80;17.43;;;0.20;99.90;;;;;;5025585;28;20439;-67
2024/01/15 05:24:13;;;;;;;43.23;18.27;;;0.30;99.90;;;;;;5022706;28;20445;-67
2024/01/15 05:26:39;;;;;;;36.77;17.90;;;0.30;99.90;;;;;;5022168;28;20671;-67
2024/01/15 05:29:04;;;;;;;37.60;16.13;;;0.30;99.90;;;;;;5018541;28;20494;-67
2024/01/15 05:31:30;;;;;;;37.50;17.97;;;0.40;99.90;;;;;;5016750;28;20433;-67
2024/01/15 05:33:55;;;;;;;39.33;19.53;;;0.50;99.90;;;;;;5015081;28;20220;-67
2024/01/15 05:36:21;;;;;;;39.67;19.00;;;0.40;99.90;;;;;;5013317;28;20203;-67
2024/01/15 05:38:48;;;;;;;38.87;19.00;;;0.50;99.90;;;;;;5022485;28;20190;-67
2024/01/15 05:41:13;;;;;;;37.53;18.20;;;0.40;99.90;;;;;;5017518;28;20904;-66
2024/01/15 05:43:39;;;;;;;47.20;19.13;;;0.40;99.90;;;;;;5014506;28;20461;-66
2024/01/15 05:46:05;;;;;;;44.37;19.90;;;0.30;99.90;;;;;;5011893;28;20582;-67
2024/01/15 05:48:30;;;;;;;36.70;17.90;;;0.40;99.90;;;;;;5019500;28;20212;-67
2024/01/15 05:50:56;;;;;;;43.43;19.03;;;0.40;99.90;;;;;;5014541;28;20646;-67
2024/01/15 05:53:21;;;;;;;42.40;19.40;;;0.40;99.90;;;;;;5015589;28;20712;-67
2024/01/15 05:55:47;;;;;;;53.07;20.27;;;0.40;99.90;;;;;;5014240;28;20657;-67
2024/01/15 05:58:12;;;;;;;44.10;18.90;;;0.40;99.90;;;;;;5018755;28;20873;-67
2024/01/15 06:00:38;;;;;;;39.00;20.40;;;0.40;99.90;;;;;;5023037;28;20219;-67
2024/01/15 06:03:04;;;;;;;47.40;21.07;;;0.50;99.90;;;;;;5021275;28;20591;-67
2024/01/15 06:05:29;;;;;;;40.83;19.47;;;0.40;99.90;;;;;;5013417;28;20295;-67
2024/01/15 06:07:55;;;;;;;37.87;17.00;;;0.50;99.90;;;;;;5021767;28;20513;-67
2024/01/15 06:10:20;;;;;;;47.87;20.33;;;0.50;99.90;;;;;;5023525;28;20252;-67
2024/01/15 06:12:46;;;;;;;45.60;22.10;;;0.50;99.90;;;;;;5014112;28;20327;-67
2024/01/15 06:15:12;;;;;;;48.40;20.77;;;0.50;99.90;;;;;;5026707;28;20298;-68
2024/01/15 06:17:38;;;;;;;43.87;22.10;;;0.50;99.90;;;;;;5022997;28;20214;-67
2024/01/15 06:20:04;;;;;;;43.83;20.83;;;0.50;99.90;;;;;;5013786;28;20433;-67
2024/01/15 06:22:30;;;;;;;45.67;20.33;;;0.50;99.90;;;;;;5010374;28;20187;-67
2024/01/15 06:24:55;;;;;;;47.17;20.13;;;0.50;99.90;;;;;;5019220;28;20968;-67
2024/01/15 06:27:21;;;;;;;40.50;20.63;;;0.60;99.90;;;;;;5014987;28;20168;-67
2024/01/15 06:29:47;;;;;;;41.70;20.50;;;0.60;99.90;;;;;;5019032;28;20204;-67
2024/01/15 06:32:13;;;;;;;37.87;18.30;;;0.70;99.90;;;;;;5017502;28;20474;-67
2024/01/15 06:34:39;;;;;;;43.83;19.17;;;0.70;99.90;;;;;;5014196;28;20813;-67
2024/01/15 06:37:05;;;;;;;44.80;20.00;;;0.70;99.90;;;;;;5012104;28;20180;-67
2024/01/15 06:39:30;;;;;;;50.43;20.40;;;0.70;99.90;;;;;;5008357;28;20444;-67
2024/01/15 06:41:56;;;;;;;47.97;20.40;;;0.80;99.90;;;;;;5016439;28;20187;-67
2024/01/15 06:44:21;;;;;;;36.43;19.90;;;0.80;99.90;;;;;;5012311;28;20212;-67
2024/01/15 06:46:47;;;;;;;43.80;21.70;;;0.80;99.90;;;;;;5014652;28;20187;-67
2024/01/15 06:49:13;;;;;;;40.63;21.30;;;0.80;99.90;;;;;;5008116;28;20192;-67
2024/01/15 06:51:39;;;;;;;45.90;19.80;;;0.80;99.90;;;;;;5012887;28;20314;-67
2024/01/15 06:54:04;;;;;;;37.83;18.47;;;0.80;99.90;;;;;;5019165;28;20211;-67
2024/01/15 06:56:31;;;;;;;36.47;19.20;;;0.80;99.90;;;;;;5015011;28;20184;-67
2024/01/15 06:58:56;;;;;;;42.30;19.43;;;0.60;99.90;;;;;;5013915;28;20696;-67
2024/01/15 07:01:22;;;;;;;43.97;20.87;;;0.50;99.90;;;;;;5017347;28;20470;-67
2024/01/15 07:03:47;;;;;;;49.43;21.43;;;0.50;99.90;;;;;;5022424;28;20235;-67
2024/01/15 07:06:13;;;;;;;43.97;18.90;;;0.60;99.90;;;;;;5023600;28;20350;-67
2024/01/15 07:08:39;;;;;;;42.93;21.20;;;0.70;99.90;;;;;;5018275;28;20189;-67
2024/01/15 07:11:05;;;;;;;42.80;20.20;;;0.70;99.90;;;;;;5019757;28;20199;-67
2024/01/15 07:13:32;;;;;;;44.27;19.10;;;0.80;99.90;;;;;;5017448;28;20441;-67
2024/01/15 07:15:57;;;;;;;45.20;20.30;;;0.80;99.90;;;;;;5023240;28;20439;-67
2024/01/15 07:18:23;;;;;;;50.73;20.83;;;0.90;99.90;;;;;;5015088;28;20454;-67
2024/01/15 07:20:49;;;;;;;42.47;21.23;;;0.90;99.90;;;;;;5016997;28;20212;-67
2024/01/15 07:23:14;;;;;;;54.33;21.10;;;0.80;99.90;;;;;;5014038;28;20212;-67
2024/01/15 07:25:40;;;;;;;46.07;21.63;;;1.00;99.90;;;;;;5016300;28;20219;-67
2024/01/15 07:28:06;;;;;;;40.10;20.87;;;0.90;99.90;;;;;;5017711;28;20905;-67
2024/01/15 07:30:31;;;;;;;37.50;20.47;;;1.00;99.90;;;;;;5015553;28;20243;-67
2024/01/15 07:32:57;;;;;;;46.20;22.17;;;0.90;99.90;;;;;;5015012;28;20188;-67
2024/01/15 07:35:22;;;;;;;46.40;20.10;;;0.90;99.90;;;;;;5014487;28;20737;-67
2024/01/15 07:37:48;;;;;;;48.03;21.20;;;0.90;99.90;;;;;;5022511;28;20212;-68
2024/01/15 07:40:14;;;;;;;36.03;18.27;;;0.80;99.90;;;;;;5029124;28;20192;-67
2024/01/15 07:42:39;;;;;;;37.60;18.63;;;0.80;99.90;;;;;;5024571;28;20291;-67
2024/01/15 07:45:05;;;;;;;45.00;21.37;;;0.80;99.90;;;;;;5029208;28;20239;-67
2024/01/15 07:47:31;;;;;;;44.53;19.83;;;0.90;99.90;;;;;;5013364;28;20431;-67
2024/01/15 07:49:57;;;;;;;47.90;20.17;;;0.80;99.90;;;;;;5018835;28;20424;-67
2024/01/15 07:52:22;;;;;;;36.40;20.57;;;0.90;99.90;;;;;;5020539;28;20184;-67
2024/01/15 07:54:48;;;;;;;35.50;17.67;;;0.80;99.90;;;;;;5029179;28;20203;-67
2024/01/15 07:57:14;;;;;;;44.63;20.83;;;0.90;99.90;;;;;;5028055;28;20257;-67
2024/01/15 07:59:40;;;;;;;38.83;19.83;;;0.80;99.90;;;;;;5011050;28;20184;-67
2024/01/15 08:02:05;;;;;;;44.10;19.37;;;1.00;99.90;;;;;;5025744;28;20693;-67
2024/01/15 08:04:31;;;;;;;43.87;20.00;;;1.00;99.90;;;;;;5018246;28;20473;-68
2024/01/15 08:06:57;;;;;;;42.27;19.37;;;1.00;99.90;;;;;;5018030;28;20247;-68
2024/01/15 08:09:23;;;;;;;47.23;19.47;;;1.00;99.90;;;;;;5015217;28;20182;-68
2024/01/15 08:11:51;;;;;;;38.57;20.20;;;1.10;99.90;;;;;;5025387;28;20422;-68
2024/01/15 08:14:17;;;;;;;39.60;18.77;;;1.20;99.90;;;;;;5014004;28;20578;-68
2024/01/15 08:16:43;;;;;;;41.60;20.67;;;1.20;99.90;;;;;;5011820;28;20794;-67
2024/01/15 08:19:09;;;;;;;41.10;19.47;;;1.20;99.90;;;;;;5015723;28;20426;-68
2024/01/15 08:21:35;;;;;;;42.20;20.60;;;1.10;99.90;;;;;;5014879;28;20596;-68
2024/01/15 08:24:04;;;;;;;37.00;19.13;;;1.10;99.90;;;;;;5017492;28;20258;-68
2024/01/15 08:26:30;;;;;;;37.23;18.73;;;1.10;99.90;;;;;;5017429;28;20651;-67
2024/01/15 08:28:55;;;;;;;49.03;20.77;;;1.10;99.90;;;;;;5017510;28;20433;-68
2024/01/15 08:31:21;;;;;;;41.77;20.53;;;1.10;99.90;;;;;;5018362;28;20191;-68
2024/01/15 08:33:46;;;;;;;44.27;20.20;;;1.00;99.90;;;;;;5024551;28;20762;-68
2024/01/15 08:36:12;;;;;;;40.60;20.67;;;1.00;99.90;;;;;;5019575;28;20263;-69
2024/01/15 08:38:38;;;;;;;38.27;20.53;;;1.10;99.90;;;;;;5017368;28;20182;-68
2024/01/15 08:41:04;;;;;;;38.20;18.83;;;1.10;99.90;;;;;;5014258;28;20181;-67
2024/01/15 08:43:31;;;;;;;57.40;23.47;;;1.20;99.90;;;;;;5025259;28;20290;-68
2024/01/15 08:45:56;;;;;;;63.07;26.90;;;1.30;99.90;;;;;;5024471;28;20203;-68
2024/01/15 08:48:22;;;;;;;52.43;20.00;;;1.20;99.90;;;;;;5020982;28;20925;-69
2024/01/15 08:50:48;;;;;;;52.93;22.87;;;1.30;99.90;;;;;;5019938;28;20441;-68
2024/01/15 08:53:14;;;;;;;36.93;19.60;;;1.40;99.90;;;;;;5023136;28;20502;-66
2024/01/15 08:55:42;;;;;;;39.03;19.30;;;1.40;99.90;;;;;;5015763;28;20243;-67
2024/01/15 08:58:08;;;;;;;42.10;19.70;;;1.50;99.90;;;;;;5023284;28;21302;-66
2024/01/15 09:00:34;;;;;;;40.33;20.80;;;1.50;99.90;;;;;;5014040;28;20419;-68
2024/01/15 09:02:59;;;;;;;32.57;17.60;;;1.40;99.90;;;;;;5009311;28;20504;-68
2024/01/15 09:05:25;;;;;;;30.00;16.70;;;1.50;99.90;;;;;;5015692;28;20216;-67
2024/01/15 09:07:51;;;;;;;35.53;18.23;;;1.50;99.90;;;;;;5017337;28;20575;-67
2024/01/15 09:10:18;;;;;;;39.97;18.93;;;1.60;99.90;;;;;;5017189;28;20210;-67
2024/01/15 09:12:43;;;;;;;45.50;20.10;;;1.60;99.90;;;;;;5017154;28;20833;-67
2024/01/15 09:15:09;;;;;;;35.43;18.20;;;1.60;99.90;;;;;;5009402;28;20435;-67
2024/01/15 09:17:35;;;;;;;42.87;19.23;;;1.60;99.90;;;;;;5011725;28;20193;-68
2024/01/15 09:20:00;;;;;;;38.20;16.90;;;1.70;99.90;;;;;;5017332;28;20187;-67
2024/01/15 09:22:26;;;;;;;39.67;17.00;;;1.70;99.90;;;;;;5019791;28;20275;-67
2024/01/15 09:24:52;;;;;;;31.40;16.40;;;1.70;99.90;;;;;;5020430;28;20214;-67
2024/01/15 09:27:17;;;;;;;31.20;17.70;;;1.60;99.90;;;;;;5020117;28;20180;-67
2024/01/15 09:29:45;;;;;;;35.20;16.60;;;1.70;99.90;;;;;;5015194;28;20462;-67
2024/01/15 09:32:11;;;;;;;32.80;16.73;;;1.80;99.90;;;;;;5027332;28;20184;-67
2024/01/15 09:34:37;;;;;;;29.50;14.80;;;1.90;99.90;;;;;;5019381;28;20466;-67
2024/01/15 09:37:03;;;;;;;37.20;17.30;;;1.90;99.90;;;;;;5026148;28;20430;-66
2024/01/15 09:39:30;;;;;;;28.63;15.77;;;1.80;99.90;;;;;;5019280;28;20197;-66
2024/01/15 09:41:57;;;;;;;26.90;15.07;;;1.90;99.90;;;;;;5019208;28;20498;-66
2024/01/15 09:44:23;;;;;;;32.57;15.73;;;1.90;99.90;;;;;;5017337;28;21191;-67
2024/01/15 09:46:52;;;;;;;32.93;15.17;;;1.90;99.90;;;;;;5010729;28;20797;-66
2024/01/15 09:49:18;;;;;;;37.10;16.73;;;1.90;99.90;;;;;;4999815;28;20428;-66
2024/01/15 09:51:44;;;;;;;31.07;17.30;;;2.00;99.90;;;;;;5006679;28;20466;-67
2024/01/15 09:54:10;;;;;;;31.37;16.10;;;2.10;99.90;;;;;;5017480;28;21495;-66
2024/01/15 09:56:36;;;;;;;26.20;14.60;;;2.20;99.90;;;;;;5020183;28;20465;-67
2024/01/15 09:59:04;;;;;;;28.67;15.87;;;2.20;99.90;;;;;;5022491;28;20188;-67
2024/01/15 10:01:31;;;;;;;29.93;15.93;;;2.20;99.90;;;;;;5019321;28;20216;-67
2024/01/15 10:03:56;;;;;;;35.07;17.73;;;2.20;99.90;;;;;;5011145;28;20920;-67
2024/01/15 10:06:22;;;;;;;33.77;17.63;;;2.30;99.90;;;;;;5013665;28;20528;-66
2024/01/15 10:08:50;;;;;;;38.27;16.57;;;2.20;99.90;;;;;;5013722;28;21959;-67
2024/01/15 10:11:16;;;;;;;32.87;15.70;;;2.20;99.90;;;;;;5015518;28;20522;-67
2024/01/15 10:13:43;;;;;;;32.70;17.40;;;2.10;99.90;;;;;;5016883;28;20525;-67
2024/01/15 10:16:09;;;;;;;30.50;17.00;;;2.10;99.90;;;;;;5017840;28;20423;-66
2024/01/15 10:18:36;;;;;;;38.43;20.40;;;2.10;99.90;;;;;;5013196;28;21048;-67
2024/01/15 10:21:03;;;;;;;34.77;17.20;;;2.00;99.90;;;;;;5009789;28;20274;-66
2024/01/15 10:23:31;;;;;;;45.27;19.57;;;2.10;99.90;;;;;;5012710;28;20512;-67
2024/01/15 10:25:57;;;;;;;35.50;18.27;;;2.10;99.90;;;;;;5015439;28;20542;-67
2024/01/15 10:28:26;;;;;;;38.50;18.50;;;2.00;99.90;;;;;;5014104;28;20479;-67
2024/01/15 10:30:54;;;;;;;37.33;19.30;;;2.00;99.90;;;;;;5015965;28;20425;-68
2024/01/15 10:33:25;;;;;;;36.70;16.80;;;1.90;99.90;;;;;;5013463;28;20941;-67
2024/01/15 10:35:55;;;;;;;29.37;15.47;;;2.10;99.90;;;;;;5008016;28;20529;-67
2024/01/15 10:38:22;;;;;;;36.87;16.83;;;2.00;99.90;;;;;;5016073;28;20436;-67
2024/01/15 10:40:52;;;;;;;26.50;13.83;;;2.00;99.90;;;;;;5013564;28;20428;-68
2024/01/15 10:43:17;;;;;;;35.90;16.90;;;1.90;99.90;;;;;;5012514;28;20485;-67
2024/01/15 10:45:47;;;;;;;31.13;14.80;;;1.90;99.90;;;;;;5013979;28;20472;-67
2024/01/15 10:48:14;;;;;;;33.90;14.83;;;1.90;99.90;;;;;;5011222;28;20193;-67
2024/01/15 10:50:40;;;;;;;29.23;14.00;;;1.80;99.90;;;;;;4995193;28;20443;-67
2024/01/15 10:53:07;;;;;;;27.60;13.80;;;1.80;99.90;;;;;;5009601;28;20430;-66
2024/01/15 10:55:34;;;;;;;22.83;12.40;;;1.80;99.90;;;;;;5011598;28;20518;-67
2024/01/15 10:58:01;;;;;;;27.53;13.77;;;1.70;99.90;;;;;;5010085;28;20431;-67
2024/01/15 11:00:27;;;;;;;31.00;14.03;;;1.60;99.90;;;;;;5009497;28;20415;-67
2024/01/15 11:02:57;;;;;;;30.73;16.97;;;1.70;99.90;;;;;;5012624;28;20520;-67
2024/01/15 11:05:23;;;;;;;35.03;15.93;;;1.60;99.90;;;;;;5013391;28;20551;-67
2024/01/15 11:07:49;;;;;;;28.60;14.03;;;1.60;99.90;;;;;;5017255;28;20611;-67
2024/01/15 11:10:46;;;;;;;27.87;13.80;;;1.60;99.90;;;;;;5012750;28;20187;-67
2024/01/15 11:13:15;;;;;;;29.30;14.70;;;1.60;99.90;;;;;;5020935;28;20441;-67
2024/01/15 11:16:00;;;;;;;34.87;13.77;;;1.50;99.90;;;;;;5014249;28;20546;-66
2024/01/15 11:18:31;;;;;;;34.07;17.13;;;1.50;99.90;;;;;;5023764;28;20431;-67
2024/01/15 11:21:15;;;;;;;36.53;16.60;;;1.60;99.90;;;;;;5017296;28;20422;-67
2024/01/15 11:23:48;;;;;;;39.00;15.60;;;1.60;99.90;;;;;;5014761;28;20461;-67
2024/01/15 11:26:35;;;;;;;36.77;15.33;;;1.60;99.90;;;;;;5017639;28;20519;-67
2024/01/15 11:29:10;;;;;;;30.93;14.10;;;1.50;99.90;;;;;;5015018;28;20415;-67
2024/01/15 11:31:38;;;;;;;34.47;16.33;;;1.50;99.90;;;;;;5013816;28;20511;-67
2024/01/15 11:34:05;;;;;;;31.33;14.93;;;1.50;99.90;;;;;;5015787;28;20545;-67
2024/01/15 11:36:48;;;;;;;35.87;16.77;;;1.40;99.90;;;;;;5017413;28;20478;-67
2024/01/15 11:39:32;;;;;;;34.17;16.60;;;1.40;99.90;;;;;;5008406;28;20463;-67
2024/01/15 11:42:00;;;;;;;30.70;15.50;;;1.40;99.90;;;;;;5017749;28;20420;-68
2024/01/15 11:44:26;;;;;;;29.97;15.20;;;1.50;99.90;;;;;;5016220;28;20980;-68
2024/01/15 11:47:02;;;;;;;38.10;16.60;;;1.50;99.90;;;;;;5017296;28;20457;-68
2024/01/15 11:49:40;;;;;;;37.43;14.57;;;1.60;99.90;;;;;;5010590;28;20843;-67
2024/01/15 11:52:06;;;;;;;37.00;17.10;;;1.50;99.90;;;;;;5017959;28;20427;-67
2024/01/15 11:54:36;;;;;;;30.27;15.57;;;1.60;99.90;;;;;;5013847;28;20462;-68
2024/01/15 11:57:08;;;;;;;34.53;17.73;;;1.60;99.90;;;;;;5013533;28;20459;-67
2024/01/15 11:59:34;;;;;;;34.00;15.40;;;1.60;99.90;;;;;;5015017;28;21207;-67
2024/01/15 12:02:00;;;;;;;36.93;15.33;;;1.70;99.90;;;;;;5014854;28;20441;-68
2024/01/15 12:04:26;;;;;;;33.30;15.50;;;1.70;99.90;;;;;;5014748;28;21060;-67
2024/01/15 12:06:52;;;;;;;29.67;14.57;;;1.60;99.90;;;;;;5018935;28;20450;-67
2024/01/15 12:09:19;;;;;;;28.40;13.47;;;1.60;99.90;;;;;;5014211;28;20423;-67
2024/01/15 12:11:53;;;;;;;31.77;14.97;;;1.70;99.90;;;;;;5014311;28;20633;-67
2024/01/15 12:14:19;;;;;;;21.43;10.93;;;1.70;99.90;;;;;;5019995;28;20436;-64
2024/01/15 12:16:44;;;;;;;26.60;14.20;;;1.70;99.90;;;;;;5016485;28;20432;-65
2024/01/15 12:19:10;;;;;;;29.47;13.37;;;1.80;99.90;;;;;;5015969;28;20447;-67
2024/01/15 12:21:38;;;;;;;27.80;13.77;;;1.80;99.90;;;;;;5021492;28;20192;-67
2024/01/15 12:24:06;;;;;;;26.83;12.17;;;1.80;99.90;;;;;;5011457;28;20199;-67
2024/01/15 12:26:32;;;;;;;25.47;12.83;;;1.80;99.90;;;;;;5015719;28;20502;-68
2024/01/15 12:29:00;;;;;;;29.10;13.43;;;1.80;99.90;;;;;;5014762;28;20414;-68
2024/01/15 12:31:26;;;;;;;23.93;12.00;;;2.00;99.90;;;;;;5021559;28;20193;-68